sensor_id;sensor_type;location;lat;lon;timestamp;temperature;humidity
3416;DHT22;1721;51.238;9.562;2023-11-21T00:00:53;10.20;94.50
3416;DHT22;1721;51.238;9.562;2023-11-21T00:03:19;10.20;94.40
3416;DHT22;1721;51.238;9.562;2023-11-21T00:05:44;10.30;94.40
3416;DHT22;1721;51.238;9.562;2023-11-21T00:08:10;10.30;94.30
3416;DHT22;1721;51.238;9.562;2023-11-21T00:10:36;10.30;94.30
3416;DHT22;1721;51.238;9.562;2023-11-21T00:13:03;10.30;94.20
3416;DHT22;1721;51.238;9.562;2023-11-21T00:15:29;10.30;94.20
3416;DHT22;1721;51.238;9.562;2023-11-21T00:17:54;10.20;94.40
3416;DHT22;1721;51.238;9.562;2023-11-21T00:20:20;10.20;94.40
3416;DHT22;1721;51.238;9.562;2023-11-21T00:22:46;10.20;94.50
3416;DHT22;1721;51.238;9.562;2023-11-21T00:25:12;10.20;94.50
3416;DHT22;1721;51.238;9.562;2023-11-21T00:27:39;10.20;94.50
3416;DHT22;1721;51.238;9.562;2023-11-21T00:30:05;10.00;94.30
3416;DHT22;1721;51.238;9.562;2023-11-21T00:32:32;10.20;94.80
3416;DHT22;1721;51.238;9.562;2023-11-21T00:34:57;10.20;94.60
3416;DHT22;1721;51.238;9.562;2023-11-21T00:37:23;10.20;94.40
3416;DHT22;1721;51.238;9.562;2023-11-21T00:39:49;10.20;94.70
3416;DHT22;1721;51.238;9.562;2023-11-21T00:42:14;10.30;94.70
3416;DHT22;1721;51.238;9.562;2023-11-21T00:44:40;10.30;94.40
3416;DHT22;1721;51.238;9.562;2023-11-21T00:47:05;10.30;94.50
3416;DHT22;1721;51.238;9.562;2023-11-21T00:49:31;10.40;94.50
3416;DHT22;1721;51.238;9.562;2023-11-21T00:51:57;10.40;94.50
3416;DHT22;1721;51.238;9.562;2023-11-21T00:54:23;10.20;94.00
3416;DHT22;1721;51.238;9.562;2023-11-21T00:56:49;10.20;94.40
3416;DHT22;1721;51.238;9.562;2023-11-21T00:59:14;10.10;94.40
3416;DHT22;1721;51.238;9.562;2023-11-21T01:01:40;10.20;94.30
3416;DHT22;1721;51.238;9.562;2023-11-21T01:04:06;10.10;94.10
3416;DHT22;1721;51.238;9.562;2023-11-21T01:06:32;10.10;93.90
3416;DHT22;1721;51.238;9.562;2023-11-21T01:08:58;10.00;93.70
3416;DHT22;1721;51.238;9.562;2023-11-21T01:11:23;9.80;94.00
3416;DHT22;1721;51.238;9.562;2023-11-21T01:13:49;9.70;93.90
3416;DHT22;1721;51.238;9.562;2023-11-21T01:16:15;9.60;93.80
3416;DHT22;1721;51.238;9.562;2023-11-21T01:18:40;9.50;93.80
3416;DHT22;1721;51.238;9.562;2023-11-21T01:21:06;9.40;93.80
3416;DHT22;1721;51.238;9.562;2023-11-21T01:23:32;9.30;94.10
3416;DHT22;1721;51.238;9.562;2023-11-21T01:25:58;9.20;93.70
3416;DHT22;1721;51.238;9.562;2023-11-21T01:28:24;9.10;93.80
3416;DHT22;1721;51.238;9.562;2023-11-21T01:30:49;9.10;93.70
3416;DHT22;1721;51.238;9.562;2023-11-21T01:33:15;9.00;93.70
3416;DHT22;1721;51.238;9.562;2023-11-21T01:35:41;8.90;93.60
3416;DHT22;1721;51.238;9.562;2023-11-21T01:38:07;8.80;93.70
3416;DHT22;1721;51.238;9.562;2023-11-21T01:40:36;8.70;93.50
3416;DHT22;1721;51.238;9.562;2023-11-21T01:43:01;8.70;93.60
3416;DHT22;1721;51.238;9.562;2023-11-21T01:45:30;8.70;93.70
3416;DHT22;1721;51.238;9.562;2023-11-21T01:47:59;8.70;93.80
3416;DHT22;1721;51.238;9.562;2023-11-21T01:50:26;8.60;93.80
3416;DHT22;1721;51.238;9.562;2023-11-21T01:52:52;8.60;94.40
3416;DHT22;1721;51.238;9.562;2023-11-21T01:55:19;8.60;94.30
3416;DHT22;1721;51.238;9.562;2023-11-21T01:57:48;8.60;94.70
3416;DHT22;1721;51.238;9.562;2023-11-21T02:00:14;8.60;94.70
3416;DHT22;1721;51.238;9.562;2023-11-21T02:02:48;8.70;94.50
3416;DHT22;1721;51.238;9.562;2023-11-21T02:05:18;8.70;94.40
3416;DHT22;1721;51.238;9.562;2023-11-21T02:07:45;8.70;94.40
3416;DHT22;1721;51.238;9.562;2023-11-21T02:10:14;8.70;94.30
3416;DHT22;1721;51.238;9.562;2023-11-21T02:12:40;8.70;94.30
3416;DHT22;1721;51.238;9.562;2023-11-21T02:15:08;8.70;94.10
3416;DHT22;1721;51.238;9.562;2023-11-21T02:17:41;8.70;94.20
3416;DHT22;1721;51.238;9.562;2023-11-21T02:20:12;8.80;94.30
3416;DHT22;1721;51.238;9.562;2023-11-21T02:22:41;8.80;94.10
3416;DHT22;1721;51.238;9.562;2023-11-21T02:25:08;8.60;94.20
3416;DHT22;1721;51.238;9.562;2023-11-21T02:27:33;8.70;94.70
3416;DHT22;1721;51.238;9.562;2023-11-21T02:29:59;8.70;94.70
3416;DHT22;1721;51.238;9.562;2023-11-21T02:32:26;8.90;94.80
3416;DHT22;1721;51.238;9.562;2023-11-21T02:34:51;9.00;94.40
3416;DHT22;1721;51.238;9.562;2023-11-21T02:37:17;9.00;94.40
3416;DHT22;1721;51.238;9.562;2023-11-21T02:39:42;9.10;94.40
3416;DHT22;1721;51.238;9.562;2023-11-21T02:42:08;9.10;94.40
3416;DHT22;1721;51.238;9.562;2023-11-21T02:44:34;9.10;94.40
3416;DHT22;1721;51.238;9.562;2023-11-21T02:47:00;9.10;94.40
3416;DHT22;1721;51.238;9.562;2023-11-21T02:49:25;9.20;94.40
3416;DHT22;1721;51.238;9.562;2023-11-21T02:51:54;9.30;94.50
3416;DHT22;1721;51.238;9.562;2023-11-21T02:54:20;9.20;94.40
3416;DHT22;1721;51.238;9.562;2023-11-21T02:56:47;9.30;94.50
3416;DHT22;1721;51.238;9.562;2023-11-21T02:59:13;9.30;94.50
3416;DHT22;1721;51.238;9.562;2023-11-21T03:01:39;9.40;94.60
3416;DHT22;1721;51.238;9.562;2023-11-21T03:04:04;9.40;94.40
3416;DHT22;1721;51.238;9.562;2023-11-21T03:06:30;9.40;94.30
3416;DHT22;1721;51.238;9.562;2023-11-21T03:08:55;9.40;94.40
3416;DHT22;1721;51.238;9.562;2023-11-21T03:11:21;9.50;94.30
3416;DHT22;1721;51.238;9.562;2023-11-21T03:13:46;9.60;94.40
3416;DHT22;1721;51.238;9.562;2023-11-21T03:16:13;9.60;94.20
3416;DHT22;1721;51.238;9.562;2023-11-21T03:18:38;9.50;94.10
3416;DHT22;1721;51.238;9.562;2023-11-21T03:21:07;9.50;94.10
3416;DHT22;1721;51.238;9.562;2023-11-21T03:23:34;9.50;94.30
3416;DHT22;1721;51.238;9.562;2023-11-21T03:26:01;9.60;94.40
3416;DHT22;1721;51.238;9.562;2023-11-21T03:28:26;9.60;94.30
3416;DHT22;1721;51.238;9.562;2023-11-21T03:30:53;9.60;94.30
3416;DHT22;1721;51.238;9.562;2023-11-21T03:33:19;9.70;94.40
3416;DHT22;1721;51.238;9.562;2023-11-21T03:35:44;9.70;94.30
3416;DHT22;1721;51.238;9.562;2023-11-21T03:38:10;9.70;94.20
3416;DHT22;1721;51.238;9.562;2023-11-21T03:40:36;9.70;94.20
3416;DHT22;1721;51.238;9.562;2023-11-21T03:43:01;9.70;94.10
3416;DHT22;1721;51.238;9.562;2023-11-21T03:45:27;9.70;94.10
3416;DHT22;1721;51.238;9.562;2023-11-21T03:47:52;9.50;93.70
3416;DHT22;1721;51.238;9.562;2023-11-21T03:50:18;9.40;94.10
3416;DHT22;1721;51.238;9.562;2023-11-21T03:52:48;9.40;93.90
3416;DHT22;1721;51.238;9.562;2023-11-21T03:55:13;9.40;93.80
3416;DHT22;1721;51.238;9.562;2023-11-21T03:57:40;9.30;93.60
3416;DHT22;1721;51.238;9.562;2023-11-21T04:00:06;9.20;93.40
3416;DHT22;1721;51.238;9.562;2023-11-21T04:02:34;9.10;93.40
3416;DHT22;1721;51.238;9.562;2023-11-21T04:05:00;9.00;93.20
3416;DHT22;1721;51.238;9.562;2023-11-21T04:07:25;8.80;93.10
3416;DHT22;1721;51.238;9.562;2023-11-21T04:09:51;8.70;93.10
3416;DHT22;1721;51.238;9.562;2023-11-21T04:12:17;8.60;93.10
3416;DHT22;1721;51.238;9.562;2023-11-21T04:14:42;8.50;93.00
3416;DHT22;1721;51.238;9.562;2023-11-21T04:17:08;8.30;93.00
3416;DHT22;1721;51.238;9.562;2023-11-21T04:19:34;8.30;93.00
3416;DHT22;1721;51.238;9.562;2023-11-21T04:22:00;8.20;92.90
3416;DHT22;1721;51.238;9.562;2023-11-21T04:24:25;8.10;92.80
3416;DHT22;1721;51.238;9.562;2023-11-21T04:26:51;8.00;92.70
3416;DHT22;1721;51.238;9.562;2023-11-21T04:29:17;8.00;92.70
3416;DHT22;1721;51.238;9.562;2023-11-21T04:31:42;7.90;92.70
3416;DHT22;1721;51.238;9.562;2023-11-21T04:34:08;7.80;92.70
3416;DHT22;1721;51.238;9.562;2023-11-21T04:36:34;7.70;92.80
3416;DHT22;1721;51.238;9.562;2023-11-21T04:39:00;7.60;92.80
3416;DHT22;1721;51.238;9.562;2023-11-21T04:41:26;7.60;92.80
3416;DHT22;1721;51.238;9.562;2023-11-21T04:43:52;7.50;92.80
3416;DHT22;1721;51.238;9.562;2023-11-21T04:46:17;7.40;92.80
3416;DHT22;1721;51.238;9.562;2023-11-21T04:48:43;7.40;92.80
3416;DHT22;1721;51.238;9.562;2023-11-21T04:51:09;7.30;92.70
3416;DHT22;1721;51.238;9.562;2023-11-21T04:53:36;7.30;92.70
3416;DHT22;1721;51.238;9.562;2023-11-21T04:56:02;7.20;92.80
3416;DHT22;1721;51.238;9.562;2023-11-21T04:58:28;7.20;92.80
3416;DHT22;1721;51.238;9.562;2023-11-21T05:00:54;7.20;92.80
3416;DHT22;1721;51.238;9.562;2023-11-21T05:03:19;7.10;92.80
3416;DHT22;1721;51.238;9.562;2023-11-21T05:05:45;7.10;92.80
3416;DHT22;1721;51.238;9.562;2023-11-21T05:08:11;7.10;92.80
3416;DHT22;1721;51.238;9.562;2023-11-21T05:10:36;7.10;92.80
3416;DHT22;1721;51.238;9.562;2023-11-21T05:13:04;7.20;92.90
3416;DHT22;1721;51.238;9.562;2023-11-21T05:15:30;7.20;93.00
3416;DHT22;1721;51.238;9.562;2023-11-21T05:17:55;7.30;93.30
3416;DHT22;1721;51.238;9.562;2023-11-21T05:20:25;7.20;93.30
3416;DHT22;1721;51.238;9.562;2023-11-21T05:22:51;7.30;93.90
3416;DHT22;1721;51.238;9.562;2023-11-21T05:25:17;7.40;93.70
3416;DHT22;1721;51.238;9.562;2023-11-21T05:27:46;7.60;93.90
3416;DHT22;1721;51.238;9.562;2023-11-21T05:30:13;7.70;93.90
3416;DHT22;1721;51.238;9.562;2023-11-21T05:32:40;7.80;93.80
3416;DHT22;1721;51.238;9.562;2023-11-21T05:35:08;7.80;94.20
3416;DHT22;1721;51.238;9.562;2023-11-21T05:37:37;7.90;94.20
3416;DHT22;1721;51.238;9.562;2023-11-21T05:40:07;7.90;94.20
3416;DHT22;1721;51.238;9.562;2023-11-21T05:42:34;8.10;94.30
3416;DHT22;1721;51.238;9.562;2023-11-21T05:45:00;8.20;94.30
3416;DHT22;1721;51.238;9.562;2023-11-21T05:47:54;8.30;94.20
3416;DHT22;1721;51.238;9.562;2023-11-21T05:50:19;8.40;94.10
3416;DHT22;1721;51.238;9.562;2023-11-21T05:52:46;8.20;94.00
3416;DHT22;1721;51.238;9.562;2023-11-21T05:55:12;8.20;94.10
3416;DHT22;1721;51.238;9.562;2023-11-21T05:57:39;8.30;94.00
3416;DHT22;1721;51.238;9.562;2023-11-21T06:00:10;8.20;94.00
3416;DHT22;1721;51.238;9.562;2023-11-21T06:02:41;8.30;94.20
3416;DHT22;1721;51.238;9.562;2023-11-21T06:05:07;8.40;94.10
3416;DHT22;1721;51.238;9.562;2023-11-21T06:07:33;8.50;94.10
3416;DHT22;1721;51.238;9.562;2023-11-21T06:09:59;8.60;94.10
3416;DHT22;1721;51.238;9.562;2023-11-21T06:12:25;8.70;94.10
3416;DHT22;1721;51.238;9.562;2023-11-21T06:14:50;8.70;93.90
3416;DHT22;1721;51.238;9.562;2023-11-21T06:17:16;8.70;94.00
3416;DHT22;1721;51.238;9.562;2023-11-21T06:19:43;8.80;94.20
3416;DHT22;1721;51.238;9.562;2023-11-21T06:22:11;8.90;94.40
3416;DHT22;1721;51.238;9.562;2023-11-21T06:24:36;9.00;94.00
3416;DHT22;1721;51.238;9.562;2023-11-21T06:27:04;9.00;93.90
3416;DHT22;1721;51.238;9.562;2023-11-21T06:29:30;9.10;94.10
3416;DHT22;1721;51.238;9.562;2023-11-21T06:31:55;9.10;94.00
3416;DHT22;1721;51.238;9.562;2023-11-21T06:34:21;9.10;93.90
3416;DHT22;1721;51.238;9.562;2023-11-21T06:36:47;9.20;94.10
3416;DHT22;1721;51.238;9.562;2023-11-21T06:39:13;9.10;94.10
3416;DHT22;1721;51.238;9.562;2023-11-21T06:41:40;9.00;94.00
3416;DHT22;1721;51.238;9.562;2023-11-21T06:44:06;8.80;94.60
3416;DHT22;1721;51.238;9.562;2023-11-21T06:46:31;8.70;94.50
3416;DHT22;1721;51.238;9.562;2023-11-21T06:48:57;8.80;94.80
3416;DHT22;1721;51.238;9.562;2023-11-21T06:51:22;8.80;94.60
3416;DHT22;1721;51.238;9.562;2023-11-21T06:53:48;9.00;94.70
3416;DHT22;1721;51.238;9.562;2023-11-21T06:56:17;9.10;94.60
3416;DHT22;1721;51.238;9.562;2023-11-21T06:58:44;9.20;94.50
3416;DHT22;1721;51.238;9.562;2023-11-21T07:01:11;9.20;94.40
3416;DHT22;1721;51.238;9.562;2023-11-21T07:03:36;9.30;94.30
3416;DHT22;1721;51.238;9.562;2023-11-21T07:06:03;9.30;94.40
3416;DHT22;1721;51.238;9.562;2023-11-21T07:08:28;9.20;94.60
3416;DHT22;1721;51.238;9.562;2023-11-21T07:10:54;9.20;94.90
3416;DHT22;1721;51.238;9.562;2023-11-21T07:13:19;9.30;94.80
3416;DHT22;1721;51.238;9.562;2023-11-21T07:15:46;9.40;94.70
3416;DHT22;1721;51.238;9.562;2023-11-21T07:18:13;9.40;94.60
3416;DHT22;1721;51.238;9.562;2023-11-21T07:20:39;9.50;94.70
3416;DHT22;1721;51.238;9.562;2023-11-21T07:23:05;9.50;94.70
3416;DHT22;1721;51.238;9.562;2023-11-21T07:25:31;9.50;94.60
3416;DHT22;1721;51.238;9.562;2023-11-21T07:27:59;9.60;94.70
3416;DHT22;1721;51.238;9.562;2023-11-21T07:30:24;9.70;94.70
3416;DHT22;1721;51.238;9.562;2023-11-21T07:32:50;9.70;94.80
3416;DHT22;1721;51.238;9.562;2023-11-21T07:35:15;9.80;94.80
3416;DHT22;1721;51.238;9.562;2023-11-21T07:37:41;9.90;94.80
3416;DHT22;1721;51.238;9.562;2023-11-21T07:40:08;9.90;94.50
3416;DHT22;1721;51.238;9.562;2023-11-21T07:42:34;9.90;94.70
3416;DHT22;1721;51.238;9.562;2023-11-21T07:45:00;9.80;94.60
3416;DHT22;1721;51.238;9.562;2023-11-21T07:47:25;9.90;95.00
3416;DHT22;1721;51.238;9.562;2023-11-21T07:49:53;10.00;94.40
3416;DHT22;1721;51.238;9.562;2023-11-21T07:52:18;10.10;94.40
3416;DHT22;1721;51.238;9.562;2023-11-21T07:54:46;10.20;94.30
3416;DHT22;1721;51.238;9.562;2023-11-21T07:57:12;10.20;94.10
3416;DHT22;1721;51.238;9.562;2023-11-21T07:59:42;10.20;94.20
3416;DHT22;1721;51.238;9.562;2023-11-21T08:02:07;10.20;94.10
3416;DHT22;1721;51.238;9.562;2023-11-21T08:04:33;10.20;94.40
3416;DHT22;1721;51.238;9.562;2023-11-21T08:06:59;10.30;94.40
3416;DHT22;1721;51.238;9.562;2023-11-21T08:09:25;10.40;94.30
3416;DHT22;1721;51.238;9.562;2023-11-21T08:11:51;10.50;94.20
3416;DHT22;1721;51.238;9.562;2023-11-21T08:14:18;10.50;94.00
3416;DHT22;1721;51.238;9.562;2023-11-21T08:16:44;10.50;93.70
3416;DHT22;1721;51.238;9.562;2023-11-21T08:19:10;10.30;94.20
3416;DHT22;1721;51.238;9.562;2023-11-21T08:21:36;10.50;94.30
3416;DHT22;1721;51.238;9.562;2023-11-21T08:24:05;10.50;94.00
3416;DHT22;1721;51.238;9.562;2023-11-21T08:26:31;10.30;94.10
3416;DHT22;1721;51.238;9.562;2023-11-21T08:28:56;10.40;94.00
3416;DHT22;1721;51.238;9.562;2023-11-21T08:31:26;10.50;94.20
3416;DHT22;1721;51.238;9.562;2023-11-21T08:33:51;10.60;94.20
3416;DHT22;1721;51.238;9.562;2023-11-21T08:36:20;10.80;94.10
3416;DHT22;1721;51.238;9.562;2023-11-21T08:38:46;10.90;93.90
3416;DHT22;1721;51.238;9.562;2023-11-21T08:41:11;11.00;93.50
3416;DHT22;1721;51.238;9.562;2023-11-21T08:43:37;11.00;93.60
3416;DHT22;1721;51.238;9.562;2023-11-21T08:46:08;11.00;93.50
3416;DHT22;1721;51.238;9.562;2023-11-21T08:48:37;11.00;93.30
3416;DHT22;1721;51.238;9.562;2023-11-21T08:51:03;10.90;93.10
3416;DHT22;1721;51.238;9.562;2023-11-21T08:53:29;11.00;93.40
3416;DHT22;1721;51.238;9.562;2023-11-21T08:55:56;11.00;93.30
3416;DHT22;1721;51.238;9.562;2023-11-21T08:58:22;11.10;93.50
3416;DHT22;1721;51.238;9.562;2023-11-21T09:00:47;11.30;93.30
3416;DHT22;1721;51.238;9.562;2023-11-21T09:03:13;11.30;93.20
3416;DHT22;1721;51.238;9.562;2023-11-21T09:05:39;11.40;93.00
3416;DHT22;1721;51.238;9.562;2023-11-21T09:08:05;11.40;92.80
3416;DHT22;1721;51.238;9.562;2023-11-21T09:10:33;11.50;92.90
3416;DHT22;1721;51.238;9.562;2023-11-21T09:13:02;11.60;92.80
3416;DHT22;1721;51.238;9.562;2023-11-21T09:15:27;11.70;92.60
3416;DHT22;1721;51.238;9.562;2023-11-21T09:17:53;11.70;92.60
3416;DHT22;1721;51.238;9.562;2023-11-21T09:20:19;11.60;92.50
3416;DHT22;1721;51.238;9.562;2023-11-21T09:22:48;11.50;92.60
3416;DHT22;1721;51.238;9.562;2023-11-21T09:25:14;11.60;92.90
3416;DHT22;1721;51.238;9.562;2023-11-21T09:27:39;11.60;92.90
3416;DHT22;1721;51.238;9.562;2023-11-21T09:30:06;11.70;92.70
3416;DHT22;1721;51.238;9.562;2023-11-21T09:32:35;11.60;92.30
3416;DHT22;1721;51.238;9.562;2023-11-21T09:35:03;11.50;92.80
3416;DHT22;1721;51.238;9.562;2023-11-21T09:37:29;11.50;93.00
3416;DHT22;1721;51.238;9.562;2023-11-21T09:39:55;11.40;92.80
3416;DHT22;1721;51.238;9.562;2023-11-21T09:42:30;11.40;93.10
3416;DHT22;1721;51.238;9.562;2023-11-21T09:47:30;11.30;93.30
3416;DHT22;1721;51.238;9.562;2023-11-21T09:49:56;11.50;93.40
3416;DHT22;1721;51.238;9.562;2023-11-21T09:52:27;11.60;93.00
3416;DHT22;1721;51.238;9.562;2023-11-21T09:54:53;11.70;93.00
3416;DHT22;1721;51.238;9.562;2023-11-21T09:57:23;11.90;92.80
3416;DHT22;1721;51.238;9.562;2023-11-21T09:59:53;12.00;92.60
3416;DHT22;1721;51.238;9.562;2023-11-21T10:02:26;11.90;92.30
3416;DHT22;1721;51.238;9.562;2023-11-21T10:04:54;11.80;92.60
3416;DHT22;1721;51.238;9.562;2023-11-21T10:07:20;11.80;92.70
3416;DHT22;1721;51.238;9.562;2023-11-21T10:09:47;11.80;93.00
3416;DHT22;1721;51.238;9.562;2023-11-21T10:12:15;11.70;93.10
3416;DHT22;1721;51.238;9.562;2023-11-21T10:14:41;11.60;93.20
3416;DHT22;1721;51.238;9.562;2023-11-21T10:17:10;11.60;93.20
3416;DHT22;1721;51.238;9.562;2023-11-21T10:19:38;11.60;93.20
3416;DHT22;1721;51.238;9.562;2023-11-21T10:22:05;11.70;93.40
3416;DHT22;1721;51.238;9.562;2023-11-21T10:24:32;11.80;93.20
3416;DHT22;1721;51.238;9.562;2023-11-21T10:26:58;12.00;93.00
3416;DHT22;1721;51.238;9.562;2023-11-21T10:29:24;11.90;92.60
3416;DHT22;1721;51.238;9.562;2023-11-21T10:31:52;11.70;93.40
3416;DHT22;1721;51.238;9.562;2023-11-21T10:34:20;11.60;93.30
3416;DHT22;1721;51.238;9.562;2023-11-21T10:36:47;11.70;93.60
3416;DHT22;1721;51.238;9.562;2023-11-21T10:39:19;11.80;93.40
3416;DHT22;1721;51.238;9.562;2023-11-21T10:41:46;11.70;93.30
3416;DHT22;1721;51.238;9.562;2023-11-21T10:44:18;11.60;93.70
3416;DHT22;1721;51.238;9.562;2023-11-21T10:46:49;11.70;93.70
3416;DHT22;1721;51.238;9.562;2023-11-21T10:49:20;11.70;93.70
3416;DHT22;1721;51.238;9.562;2023-11-21T10:51:45;11.80;93.90
3416;DHT22;1721;51.238;9.562;2023-11-21T10:54:11;11.80;93.40
3416;DHT22;1721;51.238;9.562;2023-11-21T10:56:39;11.90;93.50
3416;DHT22;1721;51.238;9.562;2023-11-21T10:59:10;12.00;93.50
3416;DHT22;1721;51.238;9.562;2023-11-21T11:01:42;11.90;93.30
3416;DHT22;1721;51.238;9.562;2023-11-21T11:04:09;11.90;93.40
3416;DHT22;1721;51.238;9.562;2023-11-21T11:06:41;11.80;93.10
3416;DHT22;1721;51.238;9.562;2023-11-21T11:09:07;11.70;93.50
3416;DHT22;1721;51.238;9.562;2023-11-21T11:11:34;11.80;93.50
3416;DHT22;1721;51.238;9.562;2023-11-21T11:14:01;12.00;93.50
3416;DHT22;1721;51.238;9.562;2023-11-21T11:16:28;12.00;93.50
3416;DHT22;1721;51.238;9.562;2023-11-21T11:18:54;12.00;93.50
3416;DHT22;1721;51.238;9.562;2023-11-21T11:26:42;12.30;93.20
3416;DHT22;1721;51.238;9.562;2023-11-21T11:29:35;12.50;93.10
3416;DHT22;1721;51.238;9.562;2023-11-21T11:32:16;12.40;93.00
3416;DHT22;1721;51.238;9.562;2023-11-21T11:35:07;12.30;93.00
3416;DHT22;1721;51.238;9.562;2023-11-21T11:37:35;12.20;93.00
3416;DHT22;1721;51.238;9.562;2023-11-21T11:40:01;12.20;93.20
3416;DHT22;1721;51.238;9.562;2023-11-21T11:42:32;12.20;93.00
3416;DHT22;1721;51.238;9.562;2023-11-21T11:44:58;12.30;93.00
3416;DHT22;1721;51.238;9.562;2023-11-21T11:47:32;12.30;93.00
3416;DHT22;1721;51.238;9.562;2023-11-21T11:50:11;12.40;93.10
3416;DHT22;1721;51.238;9.562;2023-11-21T11:52:52;12.30;93.00
3416;DHT22;1721;51.238;9.562;2023-11-21T11:55:21;12.40;93.10
3416;DHT22;1721;51.238;9.562;2023-11-21T11:57:51;12.30;93.10
3416;DHT22;1721;51.238;9.562;2023-11-21T12:02:48;12.10;93.50
3416;DHT22;1721;51.238;9.562;2023-11-21T12:05:16;12.20;93.50
3416;DHT22;1721;51.238;9.562;2023-11-21T12:07:44;12.20;93.30
3416;DHT22;1721;51.238;9.562;2023-11-21T12:10:15;12.10;93.40
3416;DHT22;1721;51.238;9.562;2023-11-21T12:12:47;12.00;93.50
3416;DHT22;1721;51.238;9.562;2023-11-21T12:15:13;11.90;93.60
3416;DHT22;1721;51.238;9.562;2023-11-21T12:17:40;11.90;93.70
3416;DHT22;1721;51.238;9.562;2023-11-21T12:20:07;11.80;93.90
3416;DHT22;1721;51.238;9.562;2023-11-21T12:22:42;11.80;93.80
3416;DHT22;1721;51.238;9.562;2023-11-21T12:25:08;11.80;93.80
3416;DHT22;1721;51.238;9.562;2023-11-21T12:27:33;11.70;94.00
3416;DHT22;1721;51.238;9.562;2023-11-21T12:30:00;11.60;94.00
3416;DHT22;1721;51.238;9.562;2023-11-21T12:32:26;11.50;94.60
3416;DHT22;1721;51.238;9.562;2023-11-21T12:34:52;11.60;94.40
3416;DHT22;1721;51.238;9.562;2023-11-21T12:37:18;11.60;94.30
3416;DHT22;1721;51.238;9.562;2023-11-21T12:39:43;11.60;94.40
3416;DHT22;1721;51.238;9.562;2023-11-21T12:42:09;11.50;94.50
3416;DHT22;1721;51.238;9.562;2023-11-21T12:44:35;11.60;94.50
3416;DHT22;1721;51.238;9.562;2023-11-21T12:47:02;11.60;94.70
3416;DHT22;1721;51.238;9.562;2023-11-21T12:49:28;11.70;94.40
3416;DHT22;1721;51.238;9.562;2023-11-21T12:51:54;11.70;94.50
3416;DHT22;1721;51.238;9.562;2023-11-21T12:54:20;11.60;94.40
3416;DHT22;1721;51.238;9.562;2023-11-21T12:56:46;11.50;94.50
3416;DHT22;1721;51.238;9.562;2023-11-21T12:59:14;11.50;94.70
3416;DHT22;1721;51.238;9.562;2023-11-21T13:01:42;11.50;94.80
3416;DHT22;1721;51.238;9.562;2023-11-21T13:04:08;11.40;94.90
3416;DHT22;1721;51.238;9.562;2023-11-21T13:06:36;11.40;94.80
3416;DHT22;1721;51.238;9.562;2023-11-21T13:09:07;11.20;94.90
3416;DHT22;1721;51.238;9.562;2023-11-21T13:11:36;11.20;95.00
3416;DHT22;1721;51.238;9.562;2023-11-21T13:14:02;11.20;95.20
3416;DHT22;1721;51.238;9.562;2023-11-21T13:16:28;11.10;95.20
3416;DHT22;1721;51.238;9.562;2023-11-21T13:18:55;10.90;95.30
3416;DHT22;1721;51.238;9.562;2023-11-21T13:21:21;10.80;95.60
3416;DHT22;1721;51.238;9.562;2023-11-21T13:23:47;10.70;95.40
3416;DHT22;1721;51.238;9.562;2023-11-21T13:26:15;10.60;95.60
3416;DHT22;1721;51.238;9.562;2023-11-21T13:28:41;10.60;95.40
3416;DHT22;1721;51.238;9.562;2023-11-21T13:31:11;10.50;95.80
3416;DHT22;1721;51.238;9.562;2023-11-21T13:34:03;10.40;95.50
3416;DHT22;1721;51.238;9.562;2023-11-21T13:36:33;10.40;95.70
3416;DHT22;1721;51.238;9.562;2023-11-21T13:39:01;10.40;95.50
3416;DHT22;1721;51.238;9.562;2023-11-21T13:41:40;10.30;94.60
3416;DHT22;1721;51.238;9.562;2023-11-21T13:44:07;10.20;94.50
3416;DHT22;1721;51.238;9.562;2023-11-21T13:46:51;10.00;94.20
3416;DHT22;1721;51.238;9.562;2023-11-21T13:49:17;9.90;95.20
3416;DHT22;1721;51.238;9.562;2023-11-21T13:51:43;9.90;94.80
3416;DHT22;1721;51.238;9.562;2023-11-21T13:54:16;9.70;94.80
3416;DHT22;1721;51.238;9.562;2023-11-21T13:56:41;9.60;94.60
3416;DHT22;1721;51.238;9.562;2023-11-21T13:59:09;9.60;94.50
3416;DHT22;1721;51.238;9.562;2023-11-21T14:01:56;9.70;94.10
3416;DHT22;1721;51.238;9.562;2023-11-21T14:04:26;9.60;94.00
3416;DHT22;1721;51.238;9.562;2023-11-21T14:06:57;9.50;94.00
3416;DHT22;1721;51.238;9.562;2023-11-21T14:09:26;9.40;93.80
3416;DHT22;1721;51.238;9.562;2023-11-21T14:11:58;9.40;94.00
3416;DHT22;1721;51.238;9.562;2023-11-21T14:14:26;9.40;93.70
3416;DHT22;1721;51.238;9.562;2023-11-21T14:16:53;9.30;93.80
3416;DHT22;1721;51.238;9.562;2023-11-21T14:19:21;9.30;93.80
3416;DHT22;1721;51.238;9.562;2023-11-21T14:21:47;9.20;93.80
3416;DHT22;1721;51.238;9.562;2023-11-21T14:24:16;9.20;94.00
3416;DHT22;1721;51.238;9.562;2023-11-21T14:26:44;9.10;94.00
3416;DHT22;1721;51.238;9.562;2023-11-21T14:29:14;9.00;94.00
3416;DHT22;1721;51.238;9.562;2023-11-21T14:31:43;9.00;93.80
3416;DHT22;1721;51.238;9.562;2023-11-21T14:34:09;9.00;94.10
3416;DHT22;1721;51.238;9.562;2023-11-21T14:36:35;8.90;94.30
3416;DHT22;1721;51.238;9.562;2023-11-21T14:39:03;8.90;94.50
3416;DHT22;1721;51.238;9.562;2023-11-21T14:41:32;9.00;94.70
3416;DHT22;1721;51.238;9.562;2023-11-21T14:44:00;8.90;94.30
3416;DHT22;1721;51.238;9.562;2023-11-21T14:46:28;8.80;94.80
3416;DHT22;1721;51.238;9.562;2023-11-21T14:48:54;8.70;94.80
3416;DHT22;1721;51.238;9.562;2023-11-21T14:51:47;8.60;94.60
3416;DHT22;1721;51.238;9.562;2023-11-21T14:54:35;8.60;94.80
3416;DHT22;1721;51.238;9.562;2023-11-21T14:57:04;8.40;94.60
3416;DHT22;1721;51.238;9.562;2023-11-21T14:59:32;8.40;94.80
3416;DHT22;1721;51.238;9.562;2023-11-21T15:01:57;8.50;94.80
3416;DHT22;1721;51.238;9.562;2023-11-21T15:04:25;8.50;94.60
3416;DHT22;1721;51.238;9.562;2023-11-21T15:07:05;8.40;94.50
3416;DHT22;1721;51.238;9.562;2023-11-21T15:09:31;8.30;94.80
3416;DHT22;1721;51.238;9.562;2023-11-21T15:11:58;8.30;94.50
3416;DHT22;1721;51.238;9.562;2023-11-21T15:14:35;8.30;94.70
3416;DHT22;1721;51.238;9.562;2023-11-21T15:17:02;8.40;94.60
3416;DHT22;1721;51.238;9.562;2023-11-21T15:19:30;8.40;94.60
3416;DHT22;1721;51.238;9.562;2023-11-21T15:21:57;8.40;94.60
3416;DHT22;1721;51.238;9.562;2023-11-21T15:24:23;8.40;94.40
3416;DHT22;1721;51.238;9.562;2023-11-21T15:26:50;8.20;93.90
3416;DHT22;1721;51.238;9.562;2023-11-21T15:29:16;8.10;94.20
3416;DHT22;1721;51.238;9.562;2023-11-21T15:31:42;8.20;94.10
3416;DHT22;1721;51.238;9.562;2023-11-21T15:34:15;8.10;94.00
3416;DHT22;1721;51.238;9.562;2023-11-21T15:36:40;8.20;93.70
3416;DHT22;1721;51.238;9.562;2023-11-21T15:39:06;8.30;93.90
3416;DHT22;1721;51.238;9.562;2023-11-21T15:41:32;8.30;93.80
3416;DHT22;1721;51.238;9.562;2023-11-21T15:43:59;8.40;93.80
3416;DHT22;1721;51.238;9.562;2023-11-21T15:46:24;8.30;93.40
3416;DHT22;1721;51.238;9.562;2023-11-21T15:48:50;8.40;93.30
3416;DHT22;1721;51.238;9.562;2023-11-21T15:51:19;8.40;93.10
3416;DHT22;1721;51.238;9.562;2023-11-21T15:53:45;8.40;93.30
3416;DHT22;1721;51.238;9.562;2023-11-21T15:56:11;8.40;93.20
3416;DHT22;1721;51.238;9.562;2023-11-21T15:58:41;8.30;92.90
3416;DHT22;1721;51.238;9.562;2023-11-21T16:01:11;8.20;93.30
3416;DHT22;1721;51.238;9.562;2023-11-21T16:03:38;8.30;93.20
3416;DHT22;1721;51.238;9.562;2023-11-21T16:06:04;8.30;92.90
3416;DHT22;1721;51.238;9.562;2023-11-21T16:08:31;8.10;93.00
3416;DHT22;1721;51.238;9.562;2023-11-21T16:10:56;8.00;93.20
3416;DHT22;1721;51.238;9.562;2023-11-21T16:13:22;8.00;93.40
3416;DHT22;1721;51.238;9.562;2023-11-21T16:15:48;8.10;93.20
3416;DHT22;1721;51.238;9.562;2023-11-21T16:18:14;8.00;93.30
3416;DHT22;1721;51.238;9.562;2023-11-21T16:20:41;8.10;93.00
3416;DHT22;1721;51.238;9.562;2023-11-21T16:23:06;8.10;93.20